Time;durP1;ratioP1;P1;durP2;ratioP2;P2;SDS_P1;SDS_P2;PMS_P1;PMS_P2;Temp;Humidity;BMP_temperature;BMP_pressure;BME280_temperature;BME280_humidity;BME280_pressure;Samples;Min_cycle;Max_cycle;Signal;HPM_P1;HPM_P2
2023/04/30 00:02:11;;;;;;;6.80;1.13;;;;;;;4.10;49.06;102374.88;5005267;28;20468;-76
2023/04/30 00:04:36;;;;;;;7.00;1.33;;;;;;;4.07;49.28;102382.56;4999804;28;20121;-76
2023/04/30 00:07:02;;;;;;;3.20;1.13;;;;;;;4.08;49.04;102384.31;5007609;28;20943;-73
2023/04/30 00:09:27;;;;;;;4.03;1.23;;;;;;;4.01;49.32;102385.97;5005326;28;20037;-72
2023/04/30 00:11:53;;;;;;;5.65;0.85;;;;;;;3.95;49.41;102383.31;5005668;28;20064;-72
2023/04/30 00:14:18;;;;;;;4.65;1.15;;;;;;;3.95;49.33;102383.31;5003864;28;20060;-72
2023/04/30 00:16:44;;;;;;;9.23;1.42;;;;;;;3.88;49.32;102376.31;5004054;28;20106;-73
2023/04/30 00:19:09;;;;;;;4.25;1.02;;;;;;;3.79;49.44;102376.22;4990556;28;20087;-72
2023/04/30 00:21:35;;;;;;;4.90;1.15;;;;;;;3.63;49.79;102379.44;5000441;28;20160;-72
2023/04/30 00:24:01;;;;;;;4.40;0.77;;;;;;;3.64;49.62;102382.06;5002855;28;20658;-72
2023/04/30 00:26:26;;;;;;;2.40;1.00;;;;;;;3.77;49.69;102388.25;5003449;28;20049;-72
2023/04/30 00:28:53;;;;;;;2.13;0.35;;;;;;;3.79;49.64;102381.41;5004474;28;20640;-72
2023/04/30 00:31:18;;;;;;;7.45;1.00;;;;;;;3.82;49.63;102384.00;4987176;28;20030;-73
2023/04/30 00:33:44;;;;;;;4.15;1.02;;;;;;;3.83;49.64;102390.94;5001915;28;20092;-71
2023/04/30 00:36:10;;;;;;;6.45;1.20;;;;;;;3.69;49.53;102390.72;5006498;28;20033;-74
2023/04/30 00:38:35;;;;;;;4.82;0.77;;;;;;;3.65;49.75;102388.97;4982359;28;20030;-73
2023/04/30 00:41:01;;;;;;;5.22;1.02;;;;;;;3.69;49.84;102397.63;5005985;28;20033;-74
2023/04/30 00:43:26;;;;;;;4.13;0.47;;;;;;;3.70;49.59;102394.22;4994882;28;20084;-72
2023/04/30 00:45:52;;;;;;;7.18;0.80;;;;;;;3.69;49.52;102395.91;5003722;28;20029;-73
2023/04/30 00:48:17;;;;;;;3.65;0.93;;;;;;;3.65;49.89;102393.25;4986742;28;20044;-73
2023/04/30 00:50:43;;;;;;;2.20;0.57;;;;;;;3.62;49.88;102395.81;5004170;28;20483;-73
2023/04/30 00:53:10;;;;;;;4.88;0.60;;;;;;;3.56;49.92;102394.91;4989206;28;20033;-72
2023/04/30 00:55:37;;;;;;;2.35;0.90;;;;;;;3.45;49.68;102390.41;4985333;28;20033;-73
2023/04/30 00:58:02;;;;;;;4.78;0.60;;;;;;;3.29;49.71;102395.38;5005636;28;20316;-73
2023/04/30 01:00:28;;;;;;;11.35;1.27;;;;;;;3.37;50.27;102403.22;5000038;28;20064;-72
2023/04/30 01:02:55;;;;;;;3.40;1.02;;;;;;;3.42;49.83;102400.72;5016529;28;20067;-72
2023/04/30 01:05:21;;;;;;;5.30;1.08;;;;;;;3.37;49.85;102398.06;5015347;28;20036;-73
2023/04/30 01:07:48;;;;;;;1.50;0.55;;;;;;;3.29;49.70;102399.66;5022830;28;20037;-72
2023/04/30 01:10:15;;;;;;;4.43;0.85;;;;;;;3.25;49.96;102403.00;5025234;28;20612;-72
2023/04/30 01:12:53;;;;;;;6.40;0.80;;;;;;;3.32;50.19;102399.72;5012828;28;20041;-72
2023/04/30 01:15:44;;;;;;;5.80;0.85;;;;;;;3.27;49.67;102401.31;5015364;28;20037;-72
2023/04/30 01:18:26;;;;;;;8.43;1.00;;;;;;;3.22;49.95;102409.00;5015758;28;20600;-72
2023/04/30 01:21:02;;;;;;;3.92;0.68;;;;;;;3.06;49.78;102407.88;5023358;28;20040;-69
2023/04/30 01:24:00;;;;;;;3.88;0.65;;;;;;;3.04;50.07;102408.72;5004489;28;20045;-69
2023/04/30 01:27:03;;;;;;;2.38;0.60;;;;;;;3.00;50.05;102410.38;5021851;28;20470;-69
2023/04/30 01:29:31;;;;;;;4.28;0.88;;;;;;;3.00;50.51;102407.78;5023005;28;20409;-74
2023/04/30 01:31:56;;;;;;;1.25;0.45;;;;;;;3.05;50.36;102410.47;5021093;28;20073;-74
2023/04/30 01:34:22;;;;;;;1.95;0.60;;;;;;;2.88;50.19;102407.59;5007970;28;20592;-74
2023/04/30 01:37:14;;;;;;;3.45;0.75;;;;;;;2.83;50.47;102409.25;5016369;28;20498;-74
2023/04/30 01:39:55;;;;;;;5.18;0.77;;;;;;;2.91;50.21;102408.53;4982447;28;20064;-75
2023/04/30 01:42:40;;;;;;;3.55;0.70;;;;;;;2.81;50.44;102408.34;5010737;28;20040;-75
2023/04/30 01:45:26;;;;;;;2.08;0.75;;;;;;;2.67;50.36;102413.28;5042855;28;20033;-74
2023/04/30 01:47:56;;;;;;;5.55;0.50;;;;;;;2.73;50.46;102409.09;5005233;28;20053;-75
2023/04/30 01:50:37;;;;;;;2.47;0.75;;;;;;;2.80;50.33;102416.91;5023037;28;20037;-73
2023/04/30 01:53:08;;;;;;;2.20;0.60;;;;;;;2.72;50.41;102415.06;5027702;28;20055;-76
2023/04/30 01:55:40;;;;;;;6.90;1.08;;;;;;;2.67;50.59;102419.31;5017794;28;20067;-76
2023/04/30 01:58:09;;;;;;;2.72;0.70;;;;;;;2.66;50.52;102411.53;5020532;28;20034;-76
2023/04/30 02:00:35;;;;;;;4.85;0.90;;;;;;;2.64;50.56;102423.53;5018560;28;20750;-74
2023/04/30 02:03:01;;;;;;;1.50;0.50;;;;;;;2.61;50.55;102419.19;4994881;28;20033;-74
2023/04/30 02:05:28;;;;;;;2.67;0.90;;;;;;;2.54;50.92;102414.75;5005970;28;20061;-74
2023/04/30 02:07:55;;;;;;;1.17;0.45;;;;;;;2.40;51.01;102417.09;4999621;28;20038;-74
2023/04/30 02:10:23;;;;;;;1.90;0.63;;;;;;;2.46;51.22;102419.75;5023954;28;20036;-74
2023/04/30 02:12:48;;;;;;;3.97;0.80;;;;;;;2.55;50.65;102419.06;4996716;28;20574;-74
2023/04/30 02:15:14;;;;;;;3.78;0.40;;;;;;;2.62;50.75;102428.66;5016930;28;20025;-73
2023/04/30 02:17:40;;;;;;;3.05;0.70;;;;;;;2.55;50.60;102429.38;5017316;28;20251;-73
2023/04/30 02:20:07;;;;;;;5.75;0.73;;;;;;;2.45;50.65;102425.78;5023898;28;20036;-73
2023/04/30 02:22:33;;;;;;;7.25;0.82;;;;;;;2.28;50.65;102425.44;5022760;28;20094;-74
2023/04/30 02:24:58;;;;;;;6.63;0.80;;;;;;;2.17;50.71;102421.78;5028601;28;20452;-73
2023/04/30 02:27:25;;;;;;;3.83;0.60;;;;;;;2.15;51.16;102418.31;5027281;28;20055;-73
2023/04/30 02:29:52;;;;;;;2.60;0.60;;;;;;;2.18;50.86;102418.38;5008501;28;20919;-73
2023/04/30 02:32:17;;;;;;;3.17;0.80;;;;;;;2.15;50.82;102415.72;5027961;28;20147;-74
2023/04/30 02:34:44;;;;;;;5.20;0.70;;;;;;;2.25;50.97;102425.41;5023997;28;20024;-73
2023/04/30 02:37:10;;;;;;;2.70;0.43;;;;;;;2.11;51.03;102421.69;5028084;28;20037;-74
2023/04/30 02:39:35;;;;;;;7.47;0.85;;;;;;;2.01;51.24;102419.75;5002872;28;20379;-73
2023/04/30 02:42:01;;;;;;;2.78;1.08;;;;;;;2.10;51.11;102425.97;5006673;28;20574;-73
2023/04/30 02:44:27;;;;;;;1.35;0.60;;;;;;;1.94;51.47;102435.09;4986346;28;20109;-74
2023/04/30 02:46:53;;;;;;;7.72;0.70;;;;;;;1.81;51.71;102430.50;4995235;28;20049;-73
2023/04/30 02:49:18;;;;;;;2.50;0.88;;;;;;;1.74;51.57;102433.78;5006925;28;20042;-74
2023/04/30 02:51:44;;;;;;;2.80;0.95;;;;;;;1.68;51.98;102431.06;4987432;28;20128;-74
2023/04/30 02:54:10;;;;;;;5.72;0.70;;;;;;;1.72;52.08;102430.31;5009762;28;20065;-73
2023/04/30 02:56:38;;;;;;;3.55;0.75;;;;;;;1.74;52.09;102431.22;5002420;28;20033;-73
2023/04/30 02:59:03;;;;;;;7.28;1.98;;;;;;;1.83;51.64;102431.41;5009922;28;20032;-73
2023/04/30 03:01:29;;;;;;;3.65;0.80;;;;;;;1.85;51.50;102442.63;5005797;28;20037;-74
2023/04/30 03:03:54;;;;;;;3.80;0.65;;;;;;;1.78;51.92;102435.59;5005928;28;20509;-72
2023/04/30 03:06:20;;;;;;;5.90;1.13;;;;;;;1.66;51.95;102433.66;5000151;28;20098;-74
2023/04/30 03:08:46;;;;;;;4.78;1.23;;;;;;;1.56;51.93;102430.81;5005317;28;20049;-74
2023/04/30 03:11:11;;;;;;;4.53;0.65;;;;;;;1.48;51.91;102434.09;5006333;28;20128;-73
2023/04/30 03:13:38;;;;;;;4.40;0.57;;;;;;;1.54;52.34;102432.50;5004344;28;20026;-74
2023/04/30 03:16:03;;;;;;;5.45;0.70;;;;;;;1.58;51.96;102435.16;5006531;28;20052;-73
2023/04/30 03:18:29;;;;;;;3.60;1.10;;;;;;;1.51;51.97;102433.28;5020074;28;20564;-73
2023/04/30 03:20:56;;;;;;;4.47;0.70;;;;;;;1.50;52.38;102436.69;5002227;28;20520;-73
2023/04/30 03:23:21;;;;;;;4.50;2.05;;;;;;;1.44;52.05;102433.97;5004036;28;20128;-73
2023/04/30 03:25:47;;;;;;;2.45;0.60;;;;;;;1.37;52.09;102437.22;5003420;28;20049;-72
2023/04/30 03:28:12;;;;;;;2.85;0.77;;;;;;;1.50;52.07;102427.25;5006594;28;20391;-73
2023/04/30 03:30:38;;;;;;;5.78;0.68;;;;;;;1.43;52.10;102435.69;5013851;28;20033;-74
2023/04/30 03:33:06;;;;;;;3.63;0.70;;;;;;;1.41;52.06;102437.34;5005757;28;20047;-73
2023/04/30 03:35:33;;;;;;;2.78;0.82;;;;;;;1.31;52.32;102437.94;4990232;28;20029;-67
2023/04/30 03:37:59;;;;;;;1.63;0.50;;;;;;;1.30;52.19;102429.38;5004000;28;20131;-68
2023/04/30 03:40:25;;;;;;;1.65;0.50;;;;;;;1.40;52.17;102443.34;5015808;28;20052;-69
2023/04/30 03:42:50;;;;;;;5.82;1.30;;;;;;;1.41;52.04;102436.47;5003674;28;20041;-68
2023/04/30 03:45:16;;;;;;;3.55;1.10;;;;;;;1.26;52.36;102435.28;5003607;28;20060;-68
2023/04/30 03:47:42;;;;;;;2.22;1.13;;;;;;;1.29;52.56;102437.91;5001779;28;20033;-67
2023/04/30 03:50:08;;;;;;;9.02;0.57;;;;;;;1.40;52.44;102435.63;5006758;28;20092;-67
2023/04/30 03:52:35;;;;;;;3.97;1.15;;;;;;;1.60;51.90;102437.78;5002107;28;20040;-66
2023/04/30 03:55:02;;;;;;;4.78;1.58;;;;;;;1.46;51.86;102435.78;5004654;28;20053;-68
2023/04/30 03:57:28;;;;;;;5.15;1.10;;;;;;;1.42;52.16;102438.25;4990530;28;20042;-73
2023/04/30 03:59:54;;;;;;;3.38;1.48;;;;;;;1.34;52.27;102445.75;5005128;28;20076;-74
2023/04/30 04:02:20;;;;;;;3.60;1.00;;;;;;;1.31;52.21;102440.53;5003370;28;20051;-71
2023/04/30 04:04:47;;;;;;;3.03;0.70;;;;;;;1.46;51.97;102435.78;5002595;28;20037;-71
2023/04/30 04:07:13;;;;;;;2.75;0.70;;;;;;;1.51;51.90;102433.28;4990045;28;20037;-73
2023/04/30 04:09:39;;;;;;;4.72;1.00;;;;;;;1.66;51.81;102437.91;5005366;28;20243;-72
2023/04/30 04:12:05;;;;;;;4.47;1.27;;;;;;;1.56;51.58;102441.13;4987937;28;20037;-71
2023/04/30 04:14:31;;;;;;;2.47;1.17;;;;;;;1.54;51.73;102443.66;5001961;28;20386;-72
2023/04/30 04:16:58;;;;;;;3.45;1.15;;;;;;;1.50;51.76;102447.00;4984113;28;20232;-70
2023/04/30 04:19:26;;;;;;;2.67;0.88;;;;;;;1.66;52.13;102450.78;5014848;28;20399;-69
2023/04/30 04:21:52;;;;;;;4.72;1.17;;;;;;;1.74;51.71;102449.25;5016574;28;20084;-71
2023/04/30 04:24:18;;;;;;;3.70;0.90;;;;;;;1.85;51.77;102450.38;5002471;28;20033;-70
2023/04/30 04:26:43;;;;;;;3.28;1.00;;;;;;;1.83;51.42;102449.47;5002548;28;20034;-68
2023/04/30 04:29:09;;;;;;;4.82;1.23;;;;;;;1.98;51.58;102458.38;4989833;28;20103;-68
2023/04/30 04:31:37;;;;;;;4.57;1.00;;;;;;;1.92;51.48;102462.56;4990896;28;20372;-67
2023/04/30 04:34:04;;;;;;;2.25;0.73;;;;;;;1.94;51.34;102460.88;5004009;28;20275;-71
2023/04/30 04:36:30;;;;;;;3.20;1.15;;;;;;;2.12;51.56;102469.84;4987398;28;20033;-70
2023/04/30 04:39:02;;;;;;;7.20;2.05;;;;;;;2.22;51.15;102470.91;4995765;28;20278;-70
2023/04/30 04:41:29;;;;;;;5.85;1.23;;;;;;;2.25;51.13;102471.84;5006171;28;20041;-68
2023/04/30 04:43:55;;;;;;;2.35;1.10;;;;;;;2.37;50.96;102478.09;5020624;28;20041;-69
2023/04/30 04:46:22;;;;;;;5.88;1.40;;;;;;;2.51;50.82;102476.63;5033449;28;20064;-67
2023/04/30 04:48:50;;;;;;;2.45;1.25;;;;;;;2.66;50.32;102469.19;5020800;28;20485;-68
2023/04/30 04:51:15;;;;;;;5.03;1.25;;;;;;;2.70;50.37;102480.44;5022998;28;20037;-69
2023/04/30 04:53:41;;;;;;;2.90;1.60;;;;;;;2.79;50.30;102475.44;5004860;28;20138;-69
2023/04/30 04:56:07;;;;;;;4.18;1.02;;;;;;;2.97;50.35;102480.94;5022278;28;20512;-68
2023/04/30 04:58:33;;;;;;;7.50;1.60;;;;;;;3.15;50.36;102471.75;5020815;28;20102;-71
2023/04/30 05:01:00;;;;;;;9.00;1.70;;;;;;;3.26;49.71;102477.09;5021804;28;20421;-71
2023/04/30 05:03:26;;;;;;;5.50;1.38;;;;;;;3.80;49.31;102476.22;5015760;28;20574;-72
2023/04/30 05:05:52;;;;;;;2.90;1.30;;;;;;;4.96;48.51;102476.72;5003595;28;20325;-70
2023/04/30 05:08:17;;;;;;;5.97;1.15;;;;;;;6.33;45.47;102480.25;5023078;28;20537;-69
2023/04/30 05:10:43;;;;;;;3.22;0.95;;;;;;;7.44;41.57;102486.41;5022654;28;20052;-69
2023/04/30 05:13:10;;;;;;;3.92;1.77;;;;;;;7.17;41.21;102482.09;5008375;28;20037;-67
2023/04/30 05:15:36;;;;;;;1.98;1.10;;;;;;;7.25;41.19;102480.38;5021149;28;20047;-66
2023/04/30 05:18:02;;;;;;;3.03;1.00;;;;;;;7.72;39.94;102486.41;5020269;28;20051;-69
2023/04/30 05:20:27;;;;;;;1.75;0.68;;;;;;;8.85;38.21;102487.69;5024963;28;20041;-69
2023/04/30 05:22:53;;;;;;;2.60;0.60;;;;;;;9.86;35.48;102482.44;5021575;28;20041;-67
2023/04/30 05:25:18;;;;;;;1.88;0.30;;;;;;;11.63;35.09;102483.28;5024906;28;20118;-69
2023/04/30 05:27:44;;;;;;;1.67;0.65;;;;;;;12.70;29.70;102481.06;5022583;28;20136;-69
2023/04/30 05:30:10;;;;;;;10.57;1.02;;;;;;;12.78;30.93;102482.66;5024897;28;20196;-67
2023/04/30 05:32:35;;;;;;;1.45;0.50;;;;;;;13.92;32.06;102484.06;5035329;28;20122;-67
2023/04/30 05:35:01;;;;;;;2.65;0.70;;;;;;;14.94;26.94;102487.09;5022302;28;20115;-67
2023/04/30 05:37:26;;;;;;;2.28;0.82;;;;;;;15.66;26.35;102477.66;5021527;28;20454;-68
2023/04/30 05:39:52;;;;;;;3.35;0.77;;;;;;;16.31;25.66;102471.72;5021461;28;20654;-67
2023/04/30 05:42:19;;;;;;;3.40;0.82;;;;;;;16.74;24.60;102479.72;5023663;28;20041;-67
2023/04/30 05:44:45;;;;;;;3.70;0.70;;;;;;;16.90;24.16;102482.59;5023961;28;20645;-68
2023/04/30 05:47:10;;;;;;;2.17;0.63;;;;;;;17.18;24.26;102480.53;5023079;28;20083;-72
2023/04/30 05:49:35;;;;;;;2.88;1.00;;;;;;;17.54;23.61;102482.53;5022478;28;20079;-70
2023/04/30 05:52:02;;;;;;;4.50;0.60;;;;;;;17.61;24.35;102478.66;5015409;28;20680;-71
2023/04/30 05:54:28;;;;;;;2.42;0.73;;;;;;;17.57;24.22;102487.66;5003050;28;20065;-71
2023/04/30 05:56:54;;;;;;;2.38;0.60;;;;;;;18.43;22.06;102489.03;4996149;28;20046;-70
2023/04/30 05:59:19;;;;;;;4.63;0.63;;;;;;;17.31;24.31;102496.69;5001483;28;20045;-68
2023/04/30 06:01:45;;;;;;;6.00;1.30;;;;;;;14.80;26.25;102501.63;4999038;28;20503;-69
2023/04/30 06:04:11;;;;;;;7.93;0.70;;;;;;;12.99;29.21;102497.88;4997236;28;20045;-68
2023/04/30 06:06:36;;;;;;;6.35;1.25;;;;;;;11.86;32.14;102502.06;4998407;28;20045;-68
2023/04/30 06:09:02;;;;;;;2.92;0.77;;;;;;;11.17;32.82;102505.03;5006001;28;20081;-70
2023/04/30 06:11:28;;;;;;;5.13;0.80;;;;;;;10.47;34.14;102507.78;4998263;28;20708;-68
2023/04/30 06:13:54;;;;;;;7.63;1.20;;;;;;;9.21;36.02;102509.13;5029444;28;20051;-68
2023/04/30 06:16:20;;;;;;;3.63;0.80;;;;;;;8.75;37.40;102510.31;5020654;28;20037;-66
2023/04/30 06:18:45;;;;;;;5.10;0.90;;;;;;;9.01;37.32;102506.69;5015604;28;20033;-70
2023/04/30 06:21:11;;;;;;;2.17;0.77;;;;;;;9.68;37.01;102515.66;5020298;28;20153;-69
2023/04/30 06:23:36;;;;;;;6.07;0.90;;;;;;;10.20;35.79;102511.63;5023651;28;20140;-69
2023/04/30 06:26:02;;;;;;;4.78;0.88;;;;;;;10.55;35.04;102511.19;5024044;28;20067;-69
2023/04/30 06:28:27;;;;;;;4.60;0.88;;;;;;;10.52;33.91;102521.66;5023621;28;20064;-68
2023/04/30 06:30:54;;;;;;;6.43;0.93;;;;;;;10.52;35.83;102516.44;5021510;28;20803;-68
2023/04/30 06:33:19;;;;;;;6.38;1.13;;;;;;;10.17;36.25;102519.53;5023426;28;20473;-68
2023/04/30 06:35:45;;;;;;;3.00;0.63;;;;;;;10.82;33.98;102517.78;5021968;28;20094;-68
2023/04/30 06:38:10;;;;;;;2.53;0.63;;;;;;;11.43;32.13;102513.31;5018503;28;20087;-69
2023/04/30 06:40:36;;;;;;;4.72;0.93;;;;;;;12.39;29.19;102507.09;5020989;28;20052;-69
2023/04/30 06:43:01;;;;;;;7.05;0.85;;;;;;;12.02;31.02;102509.63;5005207;28;20045;-70
2023/04/30 06:45:27;;;;;;;4.10;1.15;;;;;;;13.01;28.89;102516.22;5001964;28;20049;-69
2023/04/30 06:47:53;;;;;;;1.73;0.43;;;;;;;14.07;27.28;102505.56;4995764;28;21414;-69
2023/04/30 06:50:20;;;;;;;3.22;0.85;;;;;;;14.79;27.51;102505.16;5001847;28;20048;-69
2023/04/30 06:52:46;;;;;;;7.75;1.60;;;;;;;14.53;27.33;102505.09;4998614;28;20045;-69
2023/04/30 06:55:11;;;;;;;4.18;0.95;;;;;;;13.94;28.46;102500.66;5002440;28;20399;-69
2023/04/30 06:57:38;;;;;;;5.70;1.10;;;;;;;15.64;26.55;102495.28;4996033;28;20106;-70
2023/04/30 07:00:07;;;;;;;5.00;0.90;;;;;;;16.05;24.96;102495.59;5001353;28;20072;-70
2023/04/30 07:02:33;;;;;;;5.38;0.75;;;;;;;15.57;26.69;102497.28;4979211;28;20048;-70
2023/04/30 07:04:58;;;;;;;4.93;0.73;;;;;;;15.46;25.40;102495.06;4992965;28;20025;-70
2023/04/30 07:07:24;;;;;;;4.03;0.70;;;;;;;14.95;27.20;102495.88;5001965;28;20472;-69
2023/04/30 07:09:52;;;;;;;4.68;0.85;;;;;;;14.66;25.78;102495.03;5003314;28;20854;-69
2023/04/30 07:12:17;;;;;;;6.75;0.50;;;;;;;13.65;25.80;102497.97;5001056;28;20045;-69
2023/04/30 07:14:43;;;;;;;7.57;1.02;;;;;;;12.92;27.41;102501.56;5001823;28;20060;-69
2023/04/30 07:17:10;;;;;;;4.80;1.75;;;;;;;11.94;29.52;102512.41;5000973;28;20041;-69
2023/04/30 07:19:36;;;;;;;3.88;1.05;;;;;;;12.56;29.05;102511.09;4999801;28;20044;-70
2023/04/30 07:22:01;;;;;;;4.65;0.68;;;;;;;13.01;28.09;102522.34;5004189;28;20037;-70
2023/04/30 07:24:27;;;;;;;6.90;1.10;;;;;;;13.30;28.22;102518.97;4999976;28;20040;-71
2023/04/30 07:26:53;;;;;;;3.35;0.70;;;;;;;13.58;27.17;102517.44;5002011;28;20046;-70
2023/04/30 07:29:18;;;;;;;8.38;1.20;;;;;;;14.16;26.70;102526.31;5000758;28;20044;-69
2023/04/30 07:31:44;;;;;;;2.78;0.60;;;;;;;13.41;28.10;102523.97;5000571;28;20044;-70
2023/04/30 07:34:09;;;;;;;1.60;0.40;;;;;;;13.17;28.97;102532.47;5006192;28;20112;-70
2023/04/30 07:36:37;;;;;;;4.15;0.63;;;;;;;13.45;27.44;102527.34;5000817;28;20092;-70
2023/04/30 07:39:03;;;;;;;5.00;0.52;;;;;;;13.49;26.60;102532.50;5005861;28;20034;-70
2023/04/30 07:41:28;;;;;;;6.30;0.90;;;;;;;15.62;25.35;102527.00;5000677;28;20585;-70
2023/04/30 07:43:54;;;;;;;5.05;0.93;;;;;;;18.13;22.11;102522.19;5003275;28;20088;-70
2023/04/30 07:46:19;;;;;;;8.07;0.73;;;;;;;20.50;20.10;102514.53;5002001;28;20723;-70
2023/04/30 07:48:45;;;;;;;4.80;0.98;;;;;;;20.33;19.54;102520.81;5000648;28;20041;-69
2023/04/30 07:51:10;;;;;;;1.42;0.43;;;;;;;19.56;19.99;102517.91;5004355;28;20034;-71
2023/04/30 07:53:36;;;;;;;2.08;0.50;;;;;;;19.69;19.54;102514.53;5001994;28;20280;-70
2023/04/30 07:56:01;;;;;;;3.40;0.80;;;;;;;18.31;20.88;102516.06;5001963;28;20449;-70
2023/04/30 07:58:27;;;;;;;6.50;0.50;;;;;;;18.75;20.58;102515.72;5014779;28;20045;-70
2023/04/30 08:00:52;;;;;;;5.55;0.90;;;;;;;19.74;19.65;102513.44;5004789;28;20069;-70
2023/04/30 08:03:19;;;;;;;2.42;0.98;;;;;;;18.98;19.88;102511.97;5002988;28;20060;-70
2023/04/30 08:05:46;;;;;;;6.15;0.60;;;;;;;21.12;18.00;102506.56;5006059;28;20247;-70
2023/04/30 08:08:12;;;;;;;4.63;0.65;;;;;;;20.15;18.97;102515.63;5005987;28;20037;-70
2023/04/30 08:10:38;;;;;;;4.25;0.60;;;;;;;20.66;18.76;102511.91;5003544;28;20048;-71
2023/04/30 08:13:04;;;;;;;9.55;1.20;;;;;;;21.64;17.92;102515.88;5004730;28;20149;-70
2023/04/30 08:15:32;;;;;;;2.05;0.30;;;;;;;20.29;19.40;102515.78;5005346;28;20376;-69
2023/04/30 08:17:57;;;;;;;12.18;0.52;;;;;;;19.01;19.75;102522.44;5004291;28;20501;-70
2023/04/30 08:20:23;;;;;;;2.58;0.68;;;;;;;17.78;20.94;102524.66;4985215;28;20048;-70
2023/04/30 08:22:48;;;;;;;4.43;0.65;;;;;;;16.44;22.89;102524.00;5004622;28;20073;-70
2023/04/30 08:25:14;;;;;;;5.97;1.20;;;;;;;16.07;23.45;102525.41;5005597;28;20086;-71
2023/04/30 08:27:39;;;;;;;3.15;0.88;;;;;;;15.99;24.35;102523.00;5001611;28;20037;-71
2023/04/30 08:30:06;;;;;;;4.03;0.70;;;;;;;16.03;24.52;102529.09;5005642;28;20494;-70
2023/04/30 08:32:36;;;;;;;3.40;0.88;;;;;;;15.41;24.40;102531.22;5001824;28;20095;-70
2023/04/30 08:35:03;;;;;;;6.45;0.40;;;;;;;15.13;25.75;102531.28;5005725;28;20036;-71
2023/04/30 08:37:28;;;;;;;3.22;0.40;;;;;;;15.32;24.30;102531.53;4999577;28;20135;-71
2023/04/30 08:39:54;;;;;;;3.97;1.23;;;;;;;15.02;25.14;102523.72;5005316;28;20469;-70
2023/04/30 08:42:24;;;;;;;1.70;0.73;;;;;;;15.23;24.73;102531.84;5000748;28;20037;-70
2023/04/30 08:44:50;;;;;;;5.93;0.55;;;;;;;16.30;24.15;102522.75;5003125;28;20554;-70
2023/04/30 08:47:16;;;;;;;6.20;0.80;;;;;;;16.71;24.24;102527.34;4994576;28;20132;-70
2023/04/30 08:49:44;;;;;;;3.85;0.75;;;;;;;18.73;21.80;102535.28;4999697;28;20068;-70
2023/04/30 08:52:11;;;;;;;7.72;1.02;;;;;;;19.19;20.48;102523.31;5003294;28;20155;-70
2023/04/30 08:54:37;;;;;;;6.38;1.20;;;;;;;19.92;20.56;102531.00;5004531;28;20071;-70
2023/04/30 08:57:03;;;;;;;5.50;0.85;;;;;;;20.43;20.41;102526.47;4990837;28;20037;-70
2023/04/30 08:59:31;;;;;;;5.28;0.50;;;;;;;20.01;20.53;102524.34;5000439;28;20033;-70
2023/04/30 09:01:59;;;;;;;2.78;0.55;;;;;;;20.38;19.52;102523.22;4985590;28;20046;-70
2023/04/30 09:04:25;;;;;;;3.03;0.50;;;;;;;20.88;18.47;102530.13;5000049;28;20045;-69
2023/04/30 09:06:57;;;;;;;5.07;0.70;;;;;;;20.16;18.72;102527.97;4999920;28;20091;-70
2023/04/30 09:09:29;;;;;;;3.45;0.50;;;;;;;19.15;20.60;102526.19;4986630;28;20211;-70
2023/04/30 09:12:16;;;;;;;5.93;0.98;;;;;;;16.66;22.45;102530.16;4996353;28;20183;-71
2023/04/30 09:14:58;;;;;;;5.38;1.10;;;;;;;15.01;24.24;102536.94;4996903;28;20065;-70
2023/04/30 09:17:24;;;;;;;4.50;0.52;;;;;;;14.18;25.84;102540.28;4992052;28;20323;-71
2023/04/30 09:19:52;;;;;;;4.22;0.80;;;;;;;13.40;26.88;102542.38;4997591;28;20039;-70
2023/04/30 09:22:19;;;;;;;7.53;0.75;;;;;;;13.09;28.33;102536.16;4995829;28;20596;-70
2023/04/30 09:24:48;;;;;;;1.70;0.30;;;;;;;13.29;26.88;102538.28;4997039;28;20045;-71
2023/04/30 09:27:23;;;;;;;2.03;0.55;;;;;;;13.18;26.96;102537.66;4993065;28;20573;-71
2023/04/30 09:29:49;;;;;;;2.83;0.52;;;;;;;13.62;26.45;102532.22;4980772;28;20226;-71
2023/04/30 09:32:14;;;;;;;3.80;0.85;;;;;;;13.71;26.37;102534.59;4999051;28;20312;-71
2023/04/30 09:34:42;;;;;;;0.90;0.28;;;;;;;14.05;26.20;102525.78;4980929;28;20029;-71
2023/04/30 09:37:10;;;;;;;7.82;0.70;;;;;;;14.06;26.26;102525.72;4987781;28;20237;-71
2023/04/30 09:39:49;;;;;;;6.30;0.75;;;;;;;13.96;27.09;102523.41;5031779;28;20025;-71
2023/04/30 09:42:16;;;;;;;6.03;0.95;;;;;;;14.03;26.53;102524.94;5014657;28;20074;-69
2023/04/30 09:44:42;;;;;;;7.38;0.98;;;;;;;13.61;26.71;102522.63;5019192;28;20123;-71
2023/04/30 09:47:18;;;;;;;6.72;0.50;;;;;;;13.56;28.08;102524.47;4992954;28;20521;-71
2023/04/30 09:49:50;;;;;;;6.00;0.95;;;;;;;14.16;26.64;102510.53;5018292;28;20033;-71
2023/04/30 09:52:17;;;;;;;2.13;1.52;;;;;;;14.52;26.01;102510.38;5016621;28;20497;-72
2023/04/30 09:54:44;;;;;;;3.08;0.60;;;;;;;13.70;26.83;102517.13;5020119;28;20037;-72
2023/04/30 09:57:12;;;;;;;1.60;0.55;;;;;;;13.89;26.34;102505.16;5018769;28;20029;-71
2023/04/30 09:59:42;;;;;;;5.13;1.00;;;;;;;14.84;26.14;102503.25;5006936;28;20041;-72
2023/04/30 10:02:08;;;;;;;2.90;0.40;;;;;;;14.90;23.98;102503.03;5020369;28;20040;-72
2023/04/30 10:04:40;;;;;;;4.75;0.93;;;;;;;15.05;25.64;102506.97;5019652;28;20033;-71
2023/04/30 10:07:30;;;;;;;3.95;0.40;;;;;;;14.87;25.12;102500.53;5022392;28;20060;-69
2023/04/30 10:10:09;;;;;;;3.30;0.50;;;;;;;14.62;25.41;102497.81;5023016;28;20041;-72
2023/04/30 10:12:43;;;;;;;5.53;0.50;;;;;;;15.35;24.83;102500.69;5016973;28;20402;-72
2023/04/30 10:15:29;;;;;;;8.18;0.85;;;;;;;15.73;25.17;102487.94;5022962;28;20017;-71
2023/04/30 10:18:01;;;;;;;1.88;0.50;;;;;;;15.65;24.92;102489.13;5003101;28;20049;-71
2023/04/30 10:20:28;;;;;;;2.95;0.77;;;;;;;14.87;25.92;102492.63;4997925;28;20258;-70
2023/04/30 10:22:54;;;;;;;2.38;0.50;;;;;;;14.84;24.90;102492.75;5000920;28;20417;-71
2023/04/30 10:25:21;;;;;;;1.50;0.47;;;;;;;15.07;26.41;102490.19;4997819;28;20383;-72
2023/04/30 10:27:47;;;;;;;3.05;0.57;;;;;;;15.63;26.61;102485.69;5007965;28;20037;-72
2023/04/30 10:30:14;;;;;;;2.95;0.80;;;;;;;15.58;24.79;102491.97;4997926;28;20679;-71
2023/04/30 10:33:03;;;;;;;4.47;0.80;;;;;;;15.56;25.34;102490.31;4994332;28;20037;-68
2023/04/30 10:35:38;;;;;;;3.47;0.60;;;;;;;15.81;24.90;102492.91;5019788;28;20032;-72
2023/04/30 10:38:25;;;;;;;6.18;0.90;;;;;;;15.58;24.88;102486.69;5019576;28;20128;-70
2023/04/30 10:41:01;;;;;;;2.92;0.70;;;;;;;15.78;25.18;102487.75;5025677;28;20347;-71
2023/04/30 10:43:29;;;;;;;6.47;0.63;;;;;;;16.63;23.58;102478.34;5021573;28;20484;-71
2023/04/30 10:45:58;;;;;;;5.20;0.82;;;;;;;16.25;23.47;102482.50;5037568;28;20037;-71
2023/04/30 10:48:25;;;;;;;3.78;0.80;;;;;;;15.92;24.83;102480.19;4983582;28;20060;-70
2023/04/30 10:50:56;;;;;;;7.32;0.85;;;;;;;15.04;25.13;102485.03;5000586;28;20182;-70
2023/04/30 10:53:24;;;;;;;1.58;0.45;;;;;;;14.41;26.65;102475.66;4999393;28;20048;-70
2023/04/30 10:56:00;;;;;;;3.65;0.80;;;;;;;14.53;26.50;102483.19;5003669;28;20686;-71
2023/04/30 10:58:37;;;;;;;3.83;1.00;;;;;;;15.37;27.14;102471.63;4999881;28;20847;-71
2023/04/30 11:01:12;;;;;;;5.13;0.90;;;;;;;16.22;25.79;102466.81;5006468;28;20091;-71
2023/04/30 11:03:41;;;;;;;3.47;0.85;;;;;;;15.54;24.75;102471.91;5020291;28;20140;-71
2023/04/30 11:06:20;;;;;;;6.38;0.55;;;;;;;15.79;25.94;102465.75;5014960;28;20032;-73
2023/04/30 11:08:46;;;;;;;6.75;0.82;;;;;;;15.72;24.95;102459.84;5020921;28;20821;-72
2023/04/30 11:11:17;;;;;;;3.30;0.50;;;;;;;15.69;25.55;102452.06;5024121;28;20047;-70
2023/04/30 11:13:48;;;;;;;2.03;0.63;;;;;;;16.47;24.99;102455.28;5004932;28;20343;-71
2023/04/30 11:16:18;;;;;;;5.82;0.50;;;;;;;16.06;24.21;102444.56;5016788;28;20048;-71
2023/04/30 11:18:45;;;;;;;4.65;1.45;;;;;;;16.61;24.27;102442.38;5004888;28;20033;-71
2023/04/30 11:21:11;;;;;;;2.80;1.20;;;;;;;16.44;24.62;102450.97;5021828;28;20753;-71
2023/04/30 11:23:42;;;;;;;4.03;0.60;;;;;;;16.56;24.16;102444.34;5021254;28;20317;-71
2023/04/30 11:26:08;;;;;;;2.95;0.38;;;;;;;16.44;24.46;102439.56;5022097;28;20032;-71
2023/04/30 11:28:35;;;;;;;6.13;0.77;;;;;;;16.85;24.01;102447.63;5021152;28;20148;-72
2023/04/30 11:31:02;;;;;;;2.08;0.40;;;;;;;16.38;24.38;102444.16;5023949;28;20037;-72
2023/04/30 11:33:29;;;;;;;4.88;0.85;;;;;;;16.58;24.49;102445.16;5020021;28;20041;-71